createdAt,value
2022-12-11T00:00:46.451Z,100.00
2022-12-11T00:03:16.106Z,100.00
2022-12-11T00:05:45.810Z,100.00
2022-12-11T00:08:13.782Z,100.00
2022-12-11T00:10:47.556Z,100.00
2022-12-11T00:13:14.060Z,100.00
2022-12-11T00:15:40.575Z,100.00
2022-12-11T00:18:12.123Z,98.63
2022-12-11T00:20:38.862Z,98.28
2022-12-11T00:23:05.546Z,100.00
2022-12-11T00:25:32.066Z,100.00
2022-12-11T00:27:58.599Z,99.44
2022-12-11T00:30:25.182Z,100.00
2022-12-11T00:32:52.071Z,100.00
2022-12-11T00:35:18.660Z,100.00
2022-12-11T00:37:45.184Z,100.00
2022-12-11T00:40:11.848Z,100.00
2022-12-11T00:42:38.423Z,100.00
2022-12-11T00:45:05.239Z,100.00
2022-12-11T00:47:31.747Z,100.00
2022-12-11T00:49:58.306Z,100.00
2022-12-11T00:52:26.511Z,100.00
2022-12-11T00:54:53.096Z,100.00
2022-12-11T00:57:19.635Z,100.00
2022-12-11T00:59:46.175Z,100.00
2022-12-11T01:02:12.934Z,100.00
2022-12-11T01:04:39.549Z,100.00
2022-12-11T01:07:06.120Z,100.00
2022-12-11T01:09:52.224Z,100.00
2022-12-11T01:12:18.800Z,100.00
2022-12-11T01:14:45.387Z,100.00
2022-12-11T01:17:11.910Z,100.00
2022-12-11T01:19:38.462Z,100.00
2022-12-11T01:22:04.975Z,100.00
2022-12-11T01:24:31.789Z,100.00
2022-12-11T01:26:58.318Z,100.00
2022-12-11T01:29:24.906Z,100.00
2022-12-11T01:31:51.442Z,100.00
2022-12-11T01:34:17.934Z,100.00
2022-12-11T01:36:45.134Z,100.00
2022-12-11T01:39:12.109Z,100.00
2022-12-11T01:41:38.653Z,100.00
2022-12-11T01:44:27.792Z,100.00
2022-12-11T01:46:54.567Z,100.00
2022-12-11T01:49:26.036Z,100.00
2022-12-11T01:52:07.653Z,100.00
2022-12-11T01:54:35.187Z,100.00
2022-12-11T01:57:06.550Z,100.00
2022-12-11T01:59:37.468Z,100.00
2022-12-11T02:02:15.027Z,100.00
2022-12-11T02:04:42.994Z,100.00
2022-12-11T02:07:10.331Z,100.00
2022-12-11T02:09:40.122Z,100.00
2022-12-11T02:12:49.372Z,100.00
2022-12-11T02:15:24.882Z,100.00
2022-12-11T02:17:56.508Z,100.00
2022-12-11T02:20:49.214Z,100.00
2022-12-11T02:23:33.657Z,100.00
2022-12-11T02:26:21.644Z,100.00
2022-12-11T02:28:55.814Z,100.00
2022-12-11T02:31:47.565Z,100.00
2022-12-11T02:34:30.696Z,100.00
2022-12-11T02:37:03.592Z,100.00
2022-12-11T02:39:34.255Z,100.00
2022-12-11T02:42:03.581Z,100.00
2022-12-11T02:44:34.002Z,100.00
2022-12-11T02:47:02.834Z,100.00
2022-12-11T02:49:31.681Z,100.00
2022-12-11T02:52:01.084Z,100.00
2022-12-11T02:54:33.891Z,100.00
2022-12-11T02:57:11.916Z,100.00
2022-12-11T02:59:44.873Z,100.00
2022-12-11T03:02:13.473Z,100.00
2022-12-11T03:04:41.143Z,100.00
2022-12-11T03:07:15.696Z,100.00
2022-12-11T03:09:44.529Z,100.00
2022-12-11T03:12:15.081Z,100.00
2022-12-11T03:14:43.459Z,100.00
2022-12-11T03:17:21.334Z,100.00
2022-12-11T03:19:52.277Z,100.00
2022-12-11T03:22:34.091Z,100.00
2022-12-11T03:25:06.440Z,100.00
2022-12-11T03:27:48.415Z,100.00
2022-12-11T03:30:18.821Z,100.00
2022-12-11T03:32:53.288Z,100.00
2022-12-11T03:35:26.574Z,100.00
2022-12-11T03:37:56.622Z,100.00
2022-12-11T03:40:25.752Z,100.00
2022-12-11T03:42:56.418Z,100.00
2022-12-11T03:45:25.156Z,100.00
2022-12-11T03:47:54.164Z,100.00
2022-12-11T03:50:23.854Z,100.00
2022-12-11T03:52:52.281Z,100.00
2022-12-11T03:55:21.218Z,100.00
2022-12-11T03:57:48.517Z,100.00
2022-12-11T04:00:18.290Z,100.00
2022-12-11T04:02:45.301Z,100.00
2022-12-11T04:05:12.153Z,100.00
2022-12-11T04:07:39.084Z,100.00
2022-12-11T04:10:06.279Z,100.00
2022-12-11T04:12:32.805Z,100.00
2022-12-11T04:15:02.335Z,100.00
2022-12-11T04:17:54.868Z,100.00
2022-12-11T04:20:40.524Z,100.00
2022-12-11T04:23:31.307Z,100.00
2022-12-11T04:26:08.390Z,100.00
2022-12-11T04:28:35.738Z,100.00
2022-12-11T04:31:02.624Z,100.00
2022-12-11T04:33:29.538Z,100.00
2022-12-11T04:36:00.336Z,100.00
2022-12-11T04:38:27.268Z,100.00
2022-12-11T04:41:06.479Z,100.00
2022-12-11T04:43:33.315Z,100.00
2022-12-11T04:46:14.058Z,100.00
2022-12-11T04:48:41.280Z,100.00
2022-12-11T04:51:08.903Z,100.00
2022-12-11T04:53:36.036Z,100.00
2022-12-11T04:56:05.693Z,100.00
2022-12-11T04:58:32.332Z,100.00
2022-12-11T05:00:58.863Z,100.00
2022-12-11T05:03:25.425Z,100.00
2022-12-11T05:05:53.545Z,100.00
2022-12-11T05:08:21.056Z,100.00
2022-12-11T05:11:01.963Z,100.00
2022-12-11T05:13:29.608Z,100.00
2022-12-11T05:15:57.072Z,100.00
2022-12-11T05:18:24.201Z,100.00
2022-12-11T05:21:17.132Z,100.00
2022-12-11T05:23:43.794Z,100.00
2022-12-11T05:26:14.384Z,100.00
2022-12-11T05:28:41.835Z,100.00
2022-12-11T05:31:17.493Z,100.00
2022-12-11T05:33:45.338Z,100.00
2022-12-11T05:36:30.473Z,100.00
2022-12-11T05:38:58.458Z,100.00
2022-12-11T05:41:27.580Z,100.00
2022-12-11T05:43:54.220Z,100.00
2022-12-11T05:46:23.963Z,100.00
2022-12-11T05:48:52.674Z,100.00
2022-12-11T05:51:19.845Z,100.00
2022-12-11T05:53:48.108Z,100.00
2022-12-11T05:56:19.285Z,100.00
2022-12-11T05:58:47.670Z,100.00
2022-12-11T06:01:17.458Z,100.00
2022-12-11T06:03:44.668Z,100.00
2022-12-11T06:06:11.569Z,100.00
2022-12-11T06:08:38.282Z,100.00
2022-12-11T06:11:05.357Z,100.00
2022-12-11T06:13:32.202Z,100.00
2022-12-11T06:16:03.830Z,100.00
2022-12-11T06:18:30.847Z,100.00
2022-12-11T06:20:57.978Z,100.00
2022-12-11T06:23:24.598Z,100.00
2022-12-11T06:25:51.215Z,100.00
2022-12-11T06:28:18.125Z,100.00
2022-12-11T06:30:45.138Z,100.00
2022-12-11T06:33:11.956Z,100.00
2022-12-11T06:35:42.105Z,100.00
2022-12-11T06:38:10.760Z,100.00
2022-12-11T06:40:38.165Z,100.00
2022-12-11T06:43:05.108Z,100.00
2022-12-11T06:45:31.816Z,100.00
2022-12-11T06:47:58.842Z,100.00
2022-12-11T06:50:25.851Z,100.00
2022-12-11T06:52:52.387Z,100.00
2022-12-11T06:55:18.896Z,100.00
2022-12-11T06:57:45.394Z,100.00
2022-12-11T07:00:12.656Z,100.00
2022-12-11T07:02:39.224Z,100.00
2022-12-11T07:05:06.208Z,100.00
2022-12-11T07:07:33.100Z,100.00
2022-12-11T07:10:05.941Z,100.00
2022-12-11T07:12:37.626Z,100.00
2022-12-11T07:15:05.136Z,100.00
2022-12-11T07:17:32.240Z,100.00
2022-12-11T07:19:58.783Z,100.00
2022-12-11T07:22:25.343Z,100.00
2022-12-11T07:24:51.859Z,100.00
2022-12-11T07:27:18.406Z,100.00
2022-12-11T07:29:45.023Z,100.00
2022-12-11T07:32:11.665Z,100.00
2022-12-11T07:34:38.819Z,100.00
2022-12-11T07:37:05.477Z,100.00
2022-12-11T07:39:31.998Z,100.00
2022-12-11T07:41:58.544Z,100.00
2022-12-11T07:44:25.277Z,100.00
2022-12-11T07:46:51.845Z,100.00
2022-12-11T07:49:18.358Z,100.00
2022-12-11T07:51:45.033Z,100.00
2022-12-11T07:54:16.410Z,100.00
2022-12-11T07:56:53.245Z,100.00
2022-12-11T07:59:21.012Z,100.00
2022-12-11T08:01:47.679Z,100.00
2022-12-11T08:04:15.716Z,100.00
2022-12-11T08:06:42.818Z,100.00
2022-12-11T08:09:14.803Z,100.00
2022-12-11T08:11:43.974Z,100.00
2022-12-11T08:14:10.585Z,100.00
2022-12-11T08:16:38.031Z,100.00
2022-12-11T08:19:04.645Z,100.00
2022-12-11T08:21:31.194Z,100.00
2022-12-11T08:23:57.926Z,100.00
2022-12-11T08:26:30.441Z,100.00
2022-12-11T08:28:57.659Z,100.00
2022-12-11T08:31:24.884Z,100.00
2022-12-11T08:33:52.390Z,100.00
2022-12-11T08:36:21.149Z,100.00
2022-12-11T08:38:50.060Z,100.00
2022-12-11T08:41:22.738Z,100.00
2022-12-11T08:43:49.834Z,100.00
2022-12-11T08:46:16.529Z,100.00
2022-12-11T08:48:44.025Z,100.00
2022-12-11T08:51:13.903Z,100.00
2022-12-11T08:53:40.945Z,100.00
2022-12-11T08:56:13.578Z,100.00
2022-12-11T08:58:40.590Z,100.00
2022-12-11T09:01:18.842Z,100.00
2022-12-11T09:03:45.467Z,100.00
2022-12-11T09:06:14.599Z,100.00
2022-12-11T09:08:43.942Z,100.00
2022-12-11T09:11:17.545Z,100.00
2022-12-11T09:13:44.283Z,100.00
2022-12-11T09:16:14.212Z,100.00
2022-12-11T09:18:41.530Z,100.00
2022-12-11T09:21:16.070Z,100.00
2022-12-11T09:23:42.728Z,100.00
2022-12-11T09:26:12.032Z,100.00
2022-12-11T09:28:45.710Z,100.00
2022-12-11T09:31:25.554Z,100.00
2022-12-11T09:33:55.237Z,100.00
2022-12-11T09:36:22.404Z,100.00
2022-12-11T09:38:49.189Z,100.00
2022-12-11T09:41:23.157Z,100.00
2022-12-11T09:43:59.252Z,100.00
2022-12-11T09:46:32.104Z,100.00
2022-12-11T09:49:03.269Z,100.00
2022-12-11T09:52:23.601Z,100.00
2022-12-11T09:54:57.385Z,100.00
2022-12-11T09:57:28.137Z,100.00
2022-12-11T10:00:11.385Z,100.00
2022-12-11T10:02:56.824Z,100.00
2022-12-11T10:05:42.479Z,100.00
2022-12-11T10:08:17.094Z,100.00
2022-12-11T10:10:47.343Z,100.00
2022-12-11T10:13:13.910Z,100.00
2022-12-11T10:15:49.339Z,100.00
2022-12-11T10:18:23.693Z,100.00
2022-12-11T10:20:52.737Z,100.00
2022-12-11T10:23:24.789Z,100.00
2022-12-11T10:25:57.012Z,100.00
2022-12-11T10:28:23.738Z,100.00
2022-12-11T10:30:56.334Z,100.00
2022-12-11T10:33:31.894Z,100.00
2022-12-11T10:35:59.148Z,100.00
2022-12-11T10:38:40.478Z,100.00
2022-12-11T10:41:13.878Z,100.00
2022-12-11T10:43:42.370Z,100.00
2022-12-11T10:46:21.237Z,100.00
2022-12-11T10:48:47.811Z,100.00
2022-12-11T10:51:14.433Z,100.00
2022-12-11T10:53:44.216Z,100.00
2022-12-11T10:56:11.912Z,100.00
2022-12-11T10:58:47.098Z,100.00
2022-12-11T11:01:21.475Z,100.00
2022-12-11T11:03:56.957Z,100.00
2022-12-11T11:06:25.104Z,100.00
2022-12-11T11:08:55.292Z,100.00
2022-12-11T11:11:21.794Z,100.00
2022-12-11T11:13:48.742Z,100.00
2022-12-11T11:16:19.311Z,100.00
2022-12-11T11:18:53.996Z,99.10
2022-12-11T11:21:23.945Z,95.43
2022-12-11T11:23:53.699Z,99.02
2022-12-11T11:26:22.842Z,100.00
2022-12-11T11:28:53.232Z,96.34
2022-12-11T11:31:21.916Z,94.99
2022-12-11T11:33:58.913Z,95.88
2022-12-11T11:36:31.464Z,99.87
2022-12-11T11:39:45.093Z,93.30
2022-12-11T11:42:43.011Z,94.29
2022-12-11T11:45:41.233Z,95.96
2022-12-11T11:48:28.013Z,95.36
2022-12-11T11:50:54.936Z,98.51
2022-12-11T11:53:30.553Z,97.66
2022-12-11T11:56:12.287Z,90.18
2022-12-11T11:58:44.054Z,87.66
2022-12-11T12:01:16.232Z,93.92
2022-12-11T12:03:43.215Z,97.47
2022-12-11T12:06:31.598Z,100.00
2022-12-11T12:09:04.961Z,99.22
2022-12-11T12:11:31.448Z,98.89
2022-12-11T12:14:51.066Z,96.74
2022-12-11T12:17:19.667Z,98.91
2022-12-11T12:19:50.271Z,96.54
2022-12-11T12:22:48.967Z,94.99
2022-12-11T12:25:18.488Z,95.96
2022-12-11T12:28:01.976Z,97.71
2022-12-11T12:30:37.103Z,97.30
2022-12-11T12:33:12.770Z,94.51
2022-12-11T12:35:52.453Z,95.85
2022-12-11T12:38:58.378Z,95.23
2022-12-11T12:41:44.646Z,93.72
2022-12-11T12:44:11.466Z,91.61
2022-12-11T12:46:51.335Z,96.18
2022-12-11T12:50:02.633Z,98.75
2022-12-11T12:52:36.048Z,97.00
2022-12-11T12:55:22.798Z,94.50
2022-12-11T12:57:51.016Z,94.11
2022-12-11T13:00:32.001Z,98.41
2022-12-11T13:03:02.001Z,100.00
2022-12-11T13:05:32.889Z,95.35
2022-12-11T13:08:05.165Z,94.81
2022-12-11T13:10:34.306Z,97.10
2022-12-11T13:13:01.900Z,98.11
2022-12-11T13:15:43.752Z,99.56
2022-12-11T13:18:32.278Z,100.00
2022-12-11T13:21:01.625Z,100.00
2022-12-11T13:23:33.248Z,99.07
2022-12-11T13:26:02.954Z,100.00
2022-12-11T13:28:47.677Z,100.00
2022-12-11T13:31:14.202Z,100.00
2022-12-11T13:33:47.201Z,100.00
2022-12-11T13:36:18.905Z,100.00
2022-12-11T13:38:53.517Z,96.15
2022-12-11T13:41:20.772Z,96.06
2022-12-11T13:43:49.695Z,97.01
2022-12-11T13:46:23.569Z,100.00
2022-12-11T13:49:02.433Z,100.00
2022-12-11T13:51:32.465Z,100.00
2022-12-11T13:54:18.772Z,100.00
2022-12-11T13:56:59.006Z,100.00
2022-12-11T13:59:27.172Z,100.00
2022-12-11T14:01:56.909Z,100.00
2022-12-11T14:04:24.930Z,100.00
2022-12-11T14:06:56.703Z,100.00
2022-12-11T14:09:26.592Z,100.00
2022-12-11T14:11:57.034Z,100.00
2022-12-11T14:14:39.879Z,100.00
2022-12-11T14:17:06.905Z,100.00
2022-12-11T14:19:33.556Z,100.00
2022-12-11T14:22:03.654Z,100.00
2022-12-11T14:24:31.835Z,100.00
2022-12-11T14:26:58.969Z,100.00
2022-12-11T14:29:30.208Z,100.00
2022-12-11T14:32:02.432Z,100.00
2022-12-11T14:34:34.699Z,100.00
2022-12-11T14:37:05.352Z,100.00
2022-12-11T14:39:45.279Z,100.00
2022-12-11T14:42:20.246Z,100.00
2022-12-11T14:45:08.440Z,100.00
2022-12-11T14:47:41.327Z,100.00
2022-12-11T14:50:17.780Z,100.00
2022-12-11T14:52:48.379Z,100.00
2022-12-11T14:55:22.512Z,100.00
2022-12-11T14:57:53.509Z,100.00
2022-12-11T15:00:27.876Z,100.00
2022-12-11T15:03:06.040Z,100.00
2022-12-11T15:05:40.284Z,100.00
2022-12-11T15:08:10.497Z,100.00
2022-12-11T15:10:56.333Z,100.00
2022-12-11T15:13:23.827Z,100.00
2022-12-11T15:15:51.030Z,100.00
2022-12-11T15:18:28.909Z,100.00
2022-12-11T15:21:03.118Z,100.00
2022-12-11T15:23:30.083Z,100.00
2022-12-11T15:25:59.125Z,100.00
2022-12-11T15:28:29.911Z,100.00
2022-12-11T15:31:27.754Z,100.00
2022-12-11T15:33:54.556Z,100.00
2022-12-11T15:36:30.310Z,100.00
2022-12-11T15:38:57.725Z,100.00
2022-12-11T15:41:25.040Z,100.00
2022-12-11T15:43:59.070Z,100.00
2022-12-11T15:46:26.516Z,100.00
2022-12-11T15:48:53.340Z,100.00
2022-12-11T15:51:19.917Z,100.00
2022-12-11T15:53:46.454Z,100.00
2022-12-11T15:56:16.607Z,100.00
2022-12-11T15:58:44.766Z,100.00
2022-12-11T16:01:11.378Z,100.00
2022-12-11T16:03:38.122Z,100.00
2022-12-11T16:06:04.794Z,100.00
2022-12-11T16:08:31.377Z,100.00
2022-12-11T16:10:58.075Z,100.00
2022-12-11T16:13:24.914Z,100.00
2022-12-11T16:15:54.234Z,100.00
2022-12-11T16:18:23.141Z,100.00
2022-12-11T16:20:50.991Z,100.00
2022-12-11T16:23:17.915Z,100.00
2022-12-11T16:25:45.819Z,100.00
2022-12-11T16:28:15.069Z,100.00
2022-12-11T16:30:43.349Z,100.00
2022-12-11T16:33:13.182Z,100.00
2022-12-11T16:35:41.859Z,100.00
2022-12-11T16:38:10.030Z,100.00
2022-12-11T16:40:37.267Z,100.00
2022-12-11T16:43:06.042Z,100.00
2022-12-11T16:45:33.443Z,100.00
2022-12-11T16:48:03.381Z,100.00
2022-12-11T16:50:30.071Z,100.00
2022-12-11T16:52:57.047Z,100.00
2022-12-11T16:55:23.773Z,100.00
2022-12-11T16:57:50.340Z,100.00
2022-12-11T17:00:17.312Z,100.00
2022-12-11T17:02:43.969Z,100.00
2022-12-11T17:05:11.008Z,100.00
2022-12-11T17:07:37.833Z,100.00
2022-12-11T17:10:04.942Z,100.00
2022-12-11T17:12:31.582Z,100.00
2022-12-11T17:14:58.454Z,100.00
2022-12-11T17:17:25.396Z,100.00
2022-12-11T17:19:51.927Z,100.00
2022-12-11T17:22:18.470Z,100.00
2022-12-11T17:24:44.995Z,100.00
2022-12-11T17:27:11.528Z,100.00
2022-12-11T17:29:38.112Z,100.00
2022-12-11T17:32:05.293Z,100.00
2022-12-11T17:34:37.898Z,100.00
2022-12-11T17:37:05.284Z,100.00
2022-12-11T17:39:32.226Z,100.00
2022-12-11T17:41:58.958Z,100.00
2022-12-11T17:44:26.707Z,100.00
2022-12-11T17:46:53.652Z,100.00
2022-12-11T17:49:20.304Z,100.00
2022-12-11T17:51:47.836Z,100.00
2022-12-11T17:54:14.900Z,100.00
2022-12-11T17:56:41.568Z,100.00
2022-12-11T17:59:08.223Z,100.00
2022-12-11T18:01:34.908Z,100.00
2022-12-11T18:04:02.310Z,100.00
2022-12-11T18:06:29.498Z,100.00
2022-12-11T18:08:56.401Z,100.00
2022-12-11T18:11:23.719Z,100.00
2022-12-11T18:13:51.705Z,100.00
2022-12-11T18:16:31.376Z,100.00
2022-12-11T18:18:59.195Z,100.00
2022-12-11T18:21:29.518Z,100.00
2022-12-11T18:23:56.542Z,100.00
2022-12-11T18:26:23.547Z,100.00
2022-12-11T18:28:51.421Z,100.00
2022-12-11T18:31:18.942Z,100.00
2022-12-11T18:33:46.610Z,100.00
2022-12-11T18:36:15.627Z,100.00
2022-12-11T18:38:42.685Z,100.00
2022-12-11T18:41:12.023Z,100.00
2022-12-11T18:43:40.737Z,100.00
2022-12-11T18:46:14.179Z,100.00
2022-12-11T18:48:42.290Z,100.00
2022-12-11T18:51:12.934Z,100.00
2022-12-11T18:53:40.036Z,100.00
2022-12-11T18:56:15.436Z,100.00
2022-12-11T18:58:42.101Z,100.00
2022-12-11T19:01:14.013Z,100.00
2022-12-11T19:03:44.012Z,100.00
2022-12-11T19:06:13.167Z,100.00
2022-12-11T19:08:40.066Z,100.00
2022-12-11T19:11:07.127Z,100.00
2022-12-11T19:13:34.418Z,100.00
2022-12-11T19:16:01.594Z,100.00
2022-12-11T19:18:28.213Z,100.00
2022-12-11T19:21:04.982Z,100.00
2022-12-11T19:23:35.245Z,100.00
2022-12-11T19:26:02.327Z,100.00
2022-12-11T19:28:29.134Z,100.00
2022-12-11T19:30:55.767Z,100.00
2022-12-11T19:33:22.417Z,100.00
2022-12-11T19:36:00.342Z,100.00
2022-12-11T19:38:26.880Z,100.00
2022-12-11T19:40:54.083Z,100.00
2022-12-11T19:43:20.662Z,100.00
2022-12-11T19:45:48.179Z,100.00
2022-12-11T19:48:14.783Z,100.00
2022-12-11T19:50:41.347Z,100.00
2022-12-11T19:53:07.880Z,100.00
2022-12-11T19:55:34.428Z,100.00
2022-12-11T19:58:01.011Z,100.00
2022-12-11T20:00:27.542Z,100.00
2022-12-11T20:02:54.102Z,100.00
2022-12-11T20:05:20.662Z,100.00
2022-12-11T20:07:47.240Z,100.00
2022-12-11T20:10:13.794Z,100.00
2022-12-11T20:12:40.458Z,100.00
2022-12-11T20:15:07.497Z,100.00
2022-12-11T20:17:34.150Z,100.00
2022-12-11T20:20:00.743Z,100.00
2022-12-11T20:22:27.278Z,100.00
2022-12-11T20:24:53.848Z,100.00
2022-12-11T20:27:20.418Z,100.00
2022-12-11T20:29:46.976Z,100.00
2022-12-11T20:32:13.681Z,100.00
2022-12-11T20:34:40.469Z,100.00
2022-12-11T20:37:07.861Z,100.00
2022-12-11T20:39:35.572Z,100.00
2022-12-11T20:42:04.711Z,100.00
2022-12-11T20:44:32.653Z,100.00
2022-12-11T20:46:59.432Z,100.00
2022-12-11T20:49:26.231Z,100.00
2022-12-11T20:51:52.930Z,100.00
2022-12-11T20:54:19.624Z,100.00
2022-12-11T20:56:46.267Z,100.00
2022-12-11T20:59:13.288Z,100.00
2022-12-11T21:01:40.341Z,100.00
2022-12-11T21:04:06.917Z,100.00
2022-12-11T21:06:35.767Z,100.00
2022-12-11T21:09:19.333Z,100.00
2022-12-11T21:11:46.082Z,100.00
2022-12-11T21:14:14.058Z,100.00
2022-12-11T21:16:40.836Z,100.00
2022-12-11T21:19:11.298Z,100.00
2022-12-11T21:21:43.207Z,100.00
2022-12-11T21:24:17.060Z,100.00
2022-12-11T21:26:43.961Z,100.00
2022-12-11T21:29:10.523Z,100.00
2022-12-11T21:31:38.847Z,100.00
2022-12-11T21:34:06.593Z,100.00
2022-12-11T21:36:34.130Z,100.00
2022-12-11T21:39:01.903Z,100.00
2022-12-11T21:41:28.482Z,100.00
2022-12-11T21:45:14.634Z,100.00
2022-12-11T21:46:43.168Z,100.00
2022-12-11T21:49:10.079Z,100.00
2022-12-11T21:51:45.329Z,100.00
2022-12-11T21:54:16.624Z,100.00
2022-12-11T21:56:43.632Z,100.00
2022-12-11T21:59:10.283Z,100.00
2022-12-11T22:01:41.917Z,100.00
2022-12-11T22:04:10.393Z,100.00
2022-12-11T22:06:37.193Z,100.00
2022-12-11T22:09:05.458Z,100.00
2022-12-11T22:11:33.717Z,100.00
2022-12-11T22:14:00.640Z,100.00
2022-12-11T22:16:27.276Z,100.00
2022-12-11T22:18:53.960Z,100.00
2022-12-11T22:21:20.756Z,100.00
2022-12-11T22:23:47.764Z,100.00
2022-12-11T22:26:21.054Z,100.00
2022-12-11T22:28:48.048Z,100.00
2022-12-11T22:31:16.855Z,100.00
2022-12-11T22:33:44.536Z,100.00
2022-12-11T22:36:11.887Z,100.00
2022-12-11T22:38:39.514Z,100.00
2022-12-11T22:41:18.866Z,100.00
2022-12-11T22:43:48.792Z,100.00
2022-12-11T22:46:16.652Z,100.00
2022-12-11T22:48:43.229Z,100.00
2022-12-11T22:51:10.719Z,100.00
2022-12-11T22:53:37.358Z,100.00
2022-12-11T22:56:09.082Z,100.00
2022-12-11T22:58:35.996Z,100.00
2022-12-11T23:01:04.228Z,100.00
2022-12-11T23:03:30.873Z,100.00
2022-12-11T23:06:01.951Z,100.00
2022-12-11T23:08:31.575Z,100.00
2022-12-11T23:10:58.302Z,100.00
2022-12-11T23:13:24.859Z,100.00
2022-12-11T23:15:51.406Z,100.00
2022-12-11T23:18:17.949Z,100.00
2022-12-11T23:20:45.058Z,100.00
2022-12-11T23:23:11.582Z,100.00
2022-12-11T23:25:38.122Z,100.00
2022-12-11T23:28:04.959Z,100.00
2022-12-11T23:30:31.608Z,100.00
2022-12-11T23:32:58.206Z,100.00
2022-12-11T23:35:24.770Z,100.00
2022-12-11T23:37:51.360Z,100.00
2022-12-11T23:40:18.010Z,100.00
2022-12-11T23:42:44.545Z,100.00
2022-12-11T23:45:11.688Z,100.00
2022-12-11T23:47:38.513Z,100.00
2022-12-11T23:50:05.562Z,100.00
2022-12-11T23:52:32.115Z,100.00
2022-12-11T23:54:58.652Z,100.00
2022-12-11T23:57:25.614Z,100.00
2022-12-11T23:59:52.132Z,100.00
